Bitflower — SBJE — position and weather

sailwx.info

Track history (hours):
 
Tides and Currents Weather Stations Pressure Air Temp Water Temp Dewpoint Dewpoint Depression Visibility Wind Speed Wind Dir Waves Ship Positions

Bitflower

Last reported at 2014-Nov-28 12:33 UTC. Time now 2014-Nov-29 03:41 UTC.
Position N 54°40' E 010°15'.

Length 116 m; draft 6.1 m.

Type: Tanker. MMSI: 266009000.

Date/timePositionNaut miles runAvg speedWind from/ knotsBaromVisibWave heightAir tempDewpointWater temp
2014-Nov-28 12:33N 54°40' E 010°15'6 6.2
2014-Nov-28 11:33N 54°34' E 010°18'10 8.1
2014-Nov-28 10:17N 54°24' E 010°12'3 4.2
2014-Nov-28 09:33N 54°22' E 010°08'4 3.7
2014-Nov-28 08:33N 54°22' E 010°02'6 6.2
2014-Nov-28 07:33N 54°22' E 009°51'8 7.6
2014-Nov-28 06:33N 54°18' E 009°41'8 7.8
2014-Nov-28 05:29N 54°11' E 009°31'9 7.6
2014-Nov-28 04:14N 54°05' E 009°19'6 8.5
2014-Nov-28 03:33N 53°59' E 009°17'6 5.7
2014-Nov-28 02:33N 53°55' E 009°11'0 0.0
2014-Nov-28 01:30N 53°55' E 009°11'0 0.0
2014-Nov-28 00:30N 53°55' E 009°11'0 0.0
2014-Nov-27 23:30N 53°55' E 009°11'0 0.0
2014-Nov-27 22:30N 53°55' E 009°11'0 0.0
2014-Nov-27 21:30N 53°55' E 009°11'0 0.0
2014-Nov-27 20:30N 53°55' E 009°11'0 0.0
2014-Nov-27 19:28N 53°55' E 009°11'0 0.0
2014-Nov-27 18:30N 53°55' E 009°11'0 0.0
2014-Nov-27 17:28N 53°55' E 009°11'0 0.0
2014-Nov-27 16:30N 53°55' E 009°11'0 0.0
2014-Nov-27 15:30N 53°55' E 009°11'0 0.0
2014-Nov-27 14:30N 53°55' E 009°11'0 0.0
2014-Nov-27 13:33N 53°55' E 009°11'0 0.0
2014-Nov-27 12:34N 53°55' E 009°11'0 0.0
2014-Nov-27 11:34N 53°55' E 009°11'0 0.0
2014-Nov-27 10:33N 53°55' E 009°11'0 0.0
2014-Nov-27 09:33N 53°55' E 009°11'0 0.0
2014-Nov-27 08:33N 53°55' E 009°11'0 0.0
2014-Nov-27 07:33N 53°55' E 009°11'0 0.0
2014-Nov-27 06:33N 53°55' E 009°11'0 0.0
2014-Nov-27 05:33N 53°55' E 009°11'0 0.0
2014-Nov-27 04:33N 53°55' E 009°11'0 0.0
2014-Nov-27 03:33N 53°55' E 009°11'0 0.0
2014-Nov-27 02:33N 53°55' E 009°11'0 0.0
2014-Nov-27 01:33N 53°55' E 009°11'0 0.0
2014-Nov-27 00:30N 53°55' E 009°11'0 0.0
2014-Nov-26 23:30N 53°55' E 009°11'0 0.0
2014-Nov-26 22:33N 53°55' E 009°11'0 0.0
2014-Nov-26 21:33N 53°55' E 009°11'0 0.0
2014-Nov-26 20:33N 53°55' E 009°11'0 0.0
2014-Nov-26 19:33N 53°55' E 009°11'0 0.0
2014-Nov-26 18:33N 53°55' E 009°11'0 0.0
2014-Nov-26 17:33N 53°55' E 009°11'0 0.0
2014-Nov-26 16:33N 53°55' E 009°11'0 0.0
2014-Nov-26 15:33N 53°55' E 009°11'0 0.0
2014-Nov-26 14:33N 53°55' E 009°11'0 0.0
2014-Nov-26 13:33N 53°55' E 009°11'0 0.0
2014-Nov-26 12:33N 53°55' E 009°11'0 0.0
2014-Nov-26 11:33N 53°55' E 009°11'2 1.8
2014-Nov-26 10:33N 53°54' E 009°09'3 2.6
2014-Nov-26 09:33N 53°53' E 009°05'9 9.1
2014-Nov-26 08:33N 53°50' E 008°50'9 8.9
2014-Nov-26 07:33N 53°56' E 008°39'10 9.9
2014-Nov-26 06:33N 53°59' E 008°23'10 9.9
2014-Nov-26 05:33N 53°59' E 008°06'1010.2
2014-Nov-26 04:33N 53°57' E 007°49'1310.0
2014-Nov-26 03:12N 53°55' E 007°26'810.3
2014-Nov-26 02:27N 53°53' E 007°13'4511.5
2014-Nov-25 22:33N 53°42' E 006°00'1313.0
2014-Nov-25 21:33N 53°38' E 005°40'1313.2
2014-Nov-25 20:33N 53°33' E 005°19'1313.4
2014-Nov-25 19:33N 53°28' E 004°58'1813.0
2014-Nov-25 18:08N 53°15' E 004°36'9512.1
2014-Nov-25 10:16N 51°52' E 003°21'6 2.9
2014-Nov-25 08:18N 51°46' E 003°18'0 0.1
2014-Nov-25 05:16N 51°46' E 003°18'0 0.0
2014-Nov-25 03:18N 51°46' E 003°18'0 0.0
2014-Nov-25 02:24N 51°46' E 003°18'0 0.1
2014-Nov-25 00:22N 51°46' E 003°18'0 0.0
2014-Nov-24 23:16N 51°46' E 003°18'0 0.0
2014-Nov-24 22:10N 51°46' E 003°18'0 0.0
2014-Nov-24 21:22N 51°46' E 003°18'0 0.0
2014-Nov-24 17:25N 51°46' E 003°18'0 0.0
2014-Nov-24 16:22N 51°46' E 003°18'0 0.0
2014-Nov-24 15:31N 51°46' E 003°18'0 0.0
2014-Nov-24 14:22N 51°46' E 003°18'0 0.0
2014-Nov-23 12:22N 51°47' E 003°18'0 0.1
2014-Nov-23 11:23N 51°47' E 003°18'9 8.9
2014-Nov-23 10:21N 51°38' E 003°21'1012.4
2014-Nov-23 09:33N 51°29' E 003°30'1211.9
2014-Nov-23 08:33N 51°22' E 003°45'1110.9
2014-Nov-23 07:33N 51°23' E 004°02'1212.3
2014-Nov-23 06:33N 51°17' E 004°19'1 0.8
2014-Nov-23 05:34N 51°16' E 004°20'1 0.8
2014-Nov-23 04:33N 51°16' E 004°21'0 0.0
2014-Nov-23 03:33N 51°16' E 004°21'0 0.0
2014-Nov-23 02:33N 51°16' E 004°21'0 0.0
2014-Nov-23 01:33N 51°16' E 004°21'0 0.0
2014-Nov-23 00:30N 51°16' E 004°21'0 0.0
2014-Nov-22 23:33N 51°16' E 004°21'0 0.0
2014-Nov-22 22:33N 51°16' E 004°21'0 0.0
2014-Nov-22 21:27N 51°16' E 004°21'0 0.0
2014-Nov-22 20:30N 51°16' E 004°21'0 0.0
2014-Nov-22 19:30N 51°16' E 004°21'0 0.0
2014-Nov-22 18:30N 51°16' E 004°21'0 0.0
2014-Nov-22 17:30N 51°16' E 004°21'0 0.0
2014-Nov-22 16:33N 51°16' E 004°21'0 0.0
2014-Nov-22 15:33N 51°16' E 004°21'0 0.0
2014-Nov-22 14:33N 51°16' E 004°21'0 0.0
2014-Nov-22 13:33N 51°16' E 004°21'0 0.0
2014-Nov-22 12:33N 51°16' E 004°21'0 0.0
2014-Nov-22 11:33N 51°16' E 004°21'0 0.0
2014-Nov-22 10:33N 51°16' E 004°21'0 0.0
2014-Nov-22 09:30N 51°16' E 004°21'0 0.0
2014-Nov-22 08:33N 51°16' E 004°21'0 0.0
2014-Nov-22 07:33N 51°16' E 004°21'0 0.0
2014-Nov-22 06:33N 51°16' E 004°21'0 0.0
2014-Nov-22 05:30N 51°16' E 004°21'0 0.0
2014-Nov-22 04:33N 51°16' E 004°21'0 0.0
2014-Nov-22 03:33N 51°16' E 004°21'0 0.0
2014-Nov-22 02:33N 51°16' E 004°21'0 0.0
2014-Nov-22 01:33N 51°16' E 004°21'0 0.0
2014-Nov-22 00:33N 51°16' E 004°21'0 0.0
2014-Nov-21 23:33N 51°16' E 004°21'4 4.0
2014-Nov-21 22:33N 51°20' E 004°18'1 1.0
2014-Nov-21 21:33N 51°21' E 004°17'0 0.0
2014-Nov-21 20:33N 51°21' E 004°17'2 1.6
2014-Nov-21 19:33N 51°21' E 004°15'8 7.7
2014-Nov-21 18:32N 51°23' E 004°02'6 6.0
2014-Nov-21 17:33N 51°21' E 003°53'9 8.9
2014-Nov-21 16:33N 51°26' E 003°41'7 7.5
2014-Nov-21 15:33N 51°29' E 003°30'1111.2
2014-Nov-21 14:33N 51°38' E 003°20'9710.7
2014-Nov-21 05:28N 53°08' E 004°20'1410.1
2014-Nov-21 04:05N 53°21' E 004°30'1010.6
2014-Nov-21 03:07N 53°30' E 004°36'3311.3
2014-Nov-21 00:14N 54°02' E 004°46'  
Track history (hours):
 
Tides and Currents Weather Stations Pressure Air Temp Water Temp Dewpoint Dewpoint Depression Visibility Wind Speed Wind Dir Waves Ship Positions

Bitflower

Last reported at 2014-Nov-28 12:33 UTC. Time now 2014-Nov-29 03:41 UTC.
Position N 54°40' E 010°15'.

Length 116 m; draft 6.1 m.

Type: Tanker. MMSI: 266009000.

Date/timePositionNaut miles runAvg speedWind from/ knotsBaromVisibWave heightAir tempDewpointWater temp
2014-Nov-28 12:33N 54°40' E 010°15'6 6.2
2014-Nov-28 11:33N 54°34' E 010°18'10 8.1
2014-Nov-28 10:17N 54°24' E 010°12'3 4.2
2014-Nov-28 09:33N 54°22' E 010°08'4 3.7
2014-Nov-28 08:33N 54°22' E 010°02'6 6.2
2014-Nov-28 07:33N 54°22' E 009°51'8 7.6
2014-Nov-28 06:33N 54°18' E 009°41'8 7.8
2014-Nov-28 05:29N 54°11' E 009°31'9 7.6
2014-Nov-28 04:14N 54°05' E 009°19'6 8.5
2014-Nov-28 03:33N 53°59' E 009°17'6 5.7
2014-Nov-28 02:33N 53°55' E 009°11'0 0.0
2014-Nov-28 01:30N 53°55' E 009°11'0 0.0
2014-Nov-28 00:30N 53°55' E 009°11'0 0.0
2014-Nov-27 23:30N 53°55' E 009°11'0 0.0
2014-Nov-27 22:30N 53°55' E 009°11'0 0.0
2014-Nov-27 21:30N 53°55' E 009°11'0 0.0
2014-Nov-27 20:30N 53°55' E 009°11'0 0.0
2014-Nov-27 19:28N 53°55' E 009°11'0 0.0
2014-Nov-27 18:30N 53°55' E 009°11'0 0.0
2014-Nov-27 17:28N 53°55' E 009°11'0 0.0
2014-Nov-27 16:30N 53°55' E 009°11'0 0.0
2014-Nov-27 15:30N 53°55' E 009°11'0 0.0
2014-Nov-27 14:30N 53°55' E 009°11'0 0.0
2014-Nov-27 13:33N 53°55' E 009°11'0 0.0
2014-Nov-27 12:34N 53°55' E 009°11'0 0.0
2014-Nov-27 11:34N 53°55' E 009°11'0 0.0
2014-Nov-27 10:33N 53°55' E 009°11'0 0.0
2014-Nov-27 09:33N 53°55' E 009°11'0 0.0
2014-Nov-27 08:33N 53°55' E 009°11'0 0.0
2014-Nov-27 07:33N 53°55' E 009°11'0 0.0
2014-Nov-27 06:33N 53°55' E 009°11'0 0.0
2014-Nov-27 05:33N 53°55' E 009°11'0 0.0
2014-Nov-27 04:33N 53°55' E 009°11'0 0.0
2014-Nov-27 03:33N 53°55' E 009°11'0 0.0
2014-Nov-27 02:33N 53°55' E 009°11'0 0.0
2014-Nov-27 01:33N 53°55' E 009°11'0 0.0
2014-Nov-27 00:30N 53°55' E 009°11'0 0.0
2014-Nov-26 23:30N 53°55' E 009°11'0 0.0
2014-Nov-26 22:33N 53°55' E 009°11'0 0.0
2014-Nov-26 21:33N 53°55' E 009°11'0 0.0
2014-Nov-26 20:33N 53°55' E 009°11'0 0.0
2014-Nov-26 19:33N 53°55' E 009°11'0 0.0
2014-Nov-26 18:33N 53°55' E 009°11'0 0.0
2014-Nov-26 17:33N 53°55' E 009°11'0 0.0
2014-Nov-26 16:33N 53°55' E 009°11'0 0.0
2014-Nov-26 15:33N 53°55' E 009°11'0 0.0
2014-Nov-26 14:33N 53°55' E 009°11'0 0.0
2014-Nov-26 13:33N 53°55' E 009°11'0 0.0
2014-Nov-26 12:33N 53°55' E 009°11'0 0.0
2014-Nov-26 11:33N 53°55' E 009°11'2 1.8
2014-Nov-26 10:33N 53°54' E 009°09'3 2.6
2014-Nov-26 09:33N 53°53' E 009°05'9 9.1
2014-Nov-26 08:33N 53°50' E 008°50'9 8.9
2014-Nov-26 07:33N 53°56' E 008°39'10 9.9
2014-Nov-26 06:33N 53°59' E 008°23'10 9.9
2014-Nov-26 05:33N 53°59' E 008°06'1010.2
2014-Nov-26 04:33N 53°57' E 007°49'1310.0
2014-Nov-26 03:12N 53°55' E 007°26'810.3
2014-Nov-26 02:27N 53°53' E 007°13'4511.5
2014-Nov-25 22:33N 53°42' E 006°00'1313.0
2014-Nov-25 21:33N 53°38' E 005°40'1313.2
2014-Nov-25 20:33N 53°33' E 005°19'1313.4
2014-Nov-25 19:33N 53°28' E 004°58'1813.0
2014-Nov-25 18:08N 53°15' E 004°36'9512.1
2014-Nov-25 10:16N 51°52' E 003°21'6 2.9
2014-Nov-25 08:18N 51°46' E 003°18'0 0.1
2014-Nov-25 05:16N 51°46' E 003°18'0 0.0
2014-Nov-25 03:18N 51°46' E 003°18'0 0.0
2014-Nov-25 02:24N 51°46' E 003°18'0 0.1
2014-Nov-25 00:22N 51°46' E 003°18'0 0.0
2014-Nov-24 23:16N 51°46' E 003°18'0 0.0
2014-Nov-24 22:10N 51°46' E 003°18'0 0.0
2014-Nov-24 21:22N 51°46' E 003°18'0 0.0
2014-Nov-24 17:25N 51°46' E 003°18'0 0.0
2014-Nov-24 16:22N 51°46' E 003°18'0 0.0
2014-Nov-24 15:31N 51°46' E 003°18'0 0.0
2014-Nov-24 14:22N 51°46' E 003°18'0 0.0
2014-Nov-23 12:22N 51°47' E 003°18'0 0.1
2014-Nov-23 11:23N 51°47' E 003°18'9 8.9
2014-Nov-23 10:21N 51°38' E 003°21'1012.4
2014-Nov-23 09:33N 51°29' E 003°30'1211.9
2014-Nov-23 08:33N 51°22' E 003°45'1110.9
2014-Nov-23 07:33N 51°23' E 004°02'1212.3
2014-Nov-23 06:33N 51°17' E 004°19'1 0.8
2014-Nov-23 05:34N 51°16' E 004°20'1 0.8
2014-Nov-23 04:33N 51°16' E 004°21'0 0.0
2014-Nov-23 03:33N 51°16' E 004°21'0 0.0
2014-Nov-23 02:33N 51°16' E 004°21'0 0.0
2014-Nov-23 01:33N 51°16' E 004°21'0 0.0
2014-Nov-23 00:30N 51°16' E 004°21'0 0.0
2014-Nov-22 23:33N 51°16' E 004°21'0 0.0
2014-Nov-22 22:33N 51°16' E 004°21'0 0.0
2014-Nov-22 21:27N 51°16' E 004°21'0 0.0
2014-Nov-22 20:30N 51°16' E 004°21'0 0.0
2014-Nov-22 19:30N 51°16' E 004°21'0 0.0
2014-Nov-22 18:30N 51°16' E 004°21'0 0.0
2014-Nov-22 17:30N 51°16' E 004°21'0 0.0
2014-Nov-22 16:33N 51°16' E 004°21'0 0.0
2014-Nov-22 15:33N 51°16' E 004°21'0 0.0
2014-Nov-22 14:33N 51°16' E 004°21'0 0.0
2014-Nov-22 13:33N 51°16' E 004°21'0 0.0
2014-Nov-22 12:33N 51°16' E 004°21'0 0.0
2014-Nov-22 11:33N 51°16' E 004°21'0 0.0
2014-Nov-22 10:33N 51°16' E 004°21'0 0.0
2014-Nov-22 09:30N 51°16' E 004°21'0 0.0
2014-Nov-22 08:33N 51°16' E 004°21'0 0.0
2014-Nov-22 07:33N 51°16' E 004°21'0 0.0
2014-Nov-22 06:33N 51°16' E 004°21'0 0.0
2014-Nov-22 05:30N 51°16' E 004°21'0 0.0
2014-Nov-22 04:33N 51°16' E 004°21'0 0.0
2014-Nov-22 03:33N 51°16' E 004°21'0 0.0
2014-Nov-22 02:33N 51°16' E 004°21'0 0.0
2014-Nov-22 01:33N 51°16' E 004°21'0 0.0
2014-Nov-22 00:33N 51°16' E 004°21'0 0.0
2014-Nov-21 23:33N 51°16' E 004°21'4 4.0
2014-Nov-21 22:33N 51°20' E 004°18'1 1.0
2014-Nov-21 21:33N 51°21' E 004°17'0 0.0
2014-Nov-21 20:33N 51°21' E 004°17'2 1.6
2014-Nov-21 19:33N 51°21' E 004°15'8 7.7
2014-Nov-21 18:32N 51°23' E 004°02'6 6.0
2014-Nov-21 17:33N 51°21' E 003°53'9 8.9
2014-Nov-21 16:33N 51°26' E 003°41'7 7.5
2014-Nov-21 15:33N 51°29' E 003°30'1111.2
2014-Nov-21 14:33N 51°38' E 003°20'9710.7
2014-Nov-21 05:28N 53°08' E 004°20'1410.1
2014-Nov-21 04:05N 53°21' E 004°30'1010.6
2014-Nov-21 03:07N 53°30' E 004°36'3311.3
2014-Nov-21 00:14N 54°02' E 004°46'  

Dump ship's entire track history